createdAt,value
2018-03-30T00:00:24.942Z,94.08
2018-03-30T00:01:24.960Z,93.98
2018-03-30T00:02:24.975Z,93.46
2018-03-30T00:03:25.062Z,94.03
2018-03-30T00:04:25.012Z,93.27
2018-03-30T00:05:25.078Z,92.79
2018-03-30T00:06:25.047Z,92.69
2018-03-30T00:07:25.059Z,92.32
2018-03-30T00:08:25.079Z,93.17
2018-03-30T00:09:25.106Z,93.74
2018-03-30T00:10:25.112Z,93.55
2018-03-30T00:11:25.181Z,93.74
2018-03-30T00:12:25.146Z,94.03
2018-03-30T00:13:25.169Z,92.98
2018-03-30T00:14:25.187Z,93.08
2018-03-30T00:15:25.193Z,92.55
2018-03-30T00:16:25.220Z,91.46
2018-03-30T00:17:25.282Z,91.74
2018-03-30T00:18:25.244Z,91.94
2018-03-30T00:19:25.273Z,92.17
2018-03-30T00:20:25.281Z,92.13
2018-03-30T00:21:25.304Z,91.79
2018-03-30T00:22:25.320Z,91.36
2018-03-30T00:23:25.328Z,91.60
2018-03-30T00:24:25.363Z,91.94
2018-03-30T00:25:25.363Z,91.46
2018-03-30T00:26:25.380Z,92.50
2018-03-30T00:27:25.400Z,92.60
2018-03-30T00:28:25.413Z,92.55
2018-03-30T00:29:25.482Z,91.22
2018-03-30T00:30:25.458Z,91.65
2018-03-30T00:31:25.468Z,90.84
2018-03-30T00:32:25.481Z,90.55
2018-03-30T00:33:25.536Z,91.17
2018-03-30T00:34:25.556Z,90.50
2018-03-30T00:35:25.552Z,90.41
2018-03-30T00:36:25.555Z,90.41
2018-03-30T00:37:25.564Z,90.03
2018-03-30T00:38:25.592Z,89.36
2018-03-30T00:39:25.604Z,89.75
2018-03-30T00:40:25.692Z,88.70
2018-03-30T00:41:25.633Z,88.31
2018-03-30T00:42:25.651Z,88.51
2018-03-30T00:43:25.667Z,88.60
2018-03-30T00:44:25.682Z,88.89
2018-03-30T00:45:25.702Z,88.98
2018-03-30T00:46:25.716Z,88.60
2018-03-30T00:47:25.785Z,88.89
2018-03-30T00:48:25.750Z,88.89
2018-03-30T00:49:25.767Z,89.36
2018-03-30T00:50:25.784Z,89.84
2018-03-30T00:51:25.802Z,90.70
2018-03-30T00:52:25.843Z,90.50
2018-03-30T00:53:25.843Z,90.31
2018-03-30T00:54:25.854Z,90.22
2018-03-30T00:55:25.866Z,89.65
2018-03-30T00:56:25.885Z,89.17
2018-03-30T00:57:25.900Z,88.79
2018-03-30T00:58:25.974Z,88.79
2018-03-30T00:59:25.936Z,88.70
2018-03-30T01:00:25.948Z,88.89
2018-03-30T01:01:25.974Z,89.07
2018-03-30T01:02:25.995Z,88.89
2018-03-30T01:03:26.004Z,88.70
2018-03-30T01:04:26.091Z,88.84
2018-03-30T01:05:26.037Z,89.89
2018-03-30T01:06:26.049Z,89.98
2018-03-30T01:07:26.068Z,89.89
2018-03-30T01:08:26.116Z,90.27
2018-03-30T01:09:26.110Z,90.27
2018-03-30T01:10:26.196Z,89.03
2018-03-30T01:11:26.136Z,89.70
2018-03-30T01:12:26.154Z,89.03
2018-03-30T01:13:26.175Z,89.03
2018-03-30T01:14:26.189Z,88.46
2018-03-30T01:15:26.199Z,87.13
2018-03-30T01:16:26.219Z,87.55
2018-03-30T01:17:26.286Z,87.17
2018-03-30T01:18:26.251Z,86.51
2018-03-30T01:19:26.272Z,87.27
2018-03-30T01:20:26.295Z,86.88
2018-03-30T01:21:26.307Z,87.70
2018-03-30T01:22:26.338Z,88.18
2018-03-30T01:23:26.391Z,87.32
2018-03-30T01:24:26.352Z,87.13
2018-03-30T01:25:26.381Z,87.70
2018-03-30T01:26:26.387Z,87.70
2018-03-30T01:27:26.413Z,87.79
2018-03-30T01:28:26.470Z,85.70
2018-03-30T01:29:26.483Z,86.36
2018-03-30T01:30:26.452Z,86.18
2018-03-30T01:31:26.479Z,85.51
2018-03-30T01:32:26.485Z,85.22
2018-03-30T01:33:26.511Z,85.13
2018-03-30T01:34:26.519Z,85.32
2018-03-30T01:35:26.536Z,85.13
2018-03-30T01:36:26.555Z,84.27
2018-03-30T01:37:26.568Z,84.84
2018-03-30T01:38:26.584Z,83.80
2018-03-30T01:39:26.609Z,83.03
2018-03-30T01:40:26.620Z,83.45
2018-03-30T01:41:26.647Z,82.03
2018-03-30T01:42:26.660Z,82.08
2018-03-30T01:43:26.679Z,81.07
2018-03-30T01:44:26.685Z,81.36
2018-03-30T01:45:26.700Z,81.26
2018-03-30T01:46:26.720Z,81.26
2018-03-30T01:47:26.787Z,81.07
2018-03-30T01:48:26.760Z,80.69
2018-03-30T01:49:26.766Z,81.36
2018-03-30T01:50:26.784Z,81.84
2018-03-30T01:51:26.802Z,81.93
2018-03-30T01:52:26.829Z,82.31
2018-03-30T01:53:26.886Z,81.74
2018-03-30T01:54:26.851Z,82.41
2018-03-30T01:55:26.872Z,82.50
2018-03-30T01:56:26.886Z,82.31
2018-03-30T01:57:26.912Z,82.50
2018-03-30T01:58:26.921Z,81.93
2018-03-30T01:59:26.984Z,81.55
2018-03-30T02:00:26.955Z,82.03
2018-03-30T02:01:26.969Z,82.03
2018-03-30T02:02:26.992Z,82.12
2018-03-30T02:03:27.001Z,82.21
2018-03-30T02:04:27.028Z,82.31
2018-03-30T02:05:27.033Z,81.84
2018-03-30T02:06:27.051Z,82.41
2018-03-30T02:07:27.066Z,82.03
2018-03-30T02:08:27.081Z,82.12
2018-03-30T02:09:27.097Z,81.93
2018-03-30T02:10:27.118Z,82.03
2018-03-30T02:11:27.133Z,82.41
2018-03-30T02:12:27.148Z,82.50
2018-03-30T02:13:27.165Z,82.03
2018-03-30T02:14:27.182Z,82.56
2018-03-30T02:15:27.197Z,82.12
2018-03-30T02:16:27.222Z,82.12
2018-03-30T02:17:27.312Z,82.41
2018-03-30T02:18:27.253Z,82.69
2018-03-30T02:19:27.263Z,82.60
2018-03-30T02:20:27.279Z,82.60
2018-03-30T02:21:27.296Z,82.65
2018-03-30T02:22:27.309Z,81.55
2018-03-30T02:23:27.457Z,81.07
2018-03-30T02:24:27.346Z,80.60
2018-03-30T02:25:27.366Z,80.88
2018-03-30T02:26:27.377Z,81.93
2018-03-30T02:27:27.394Z,79.36
2018-03-30T02:28:27.412Z,77.83
2018-03-30T02:29:27.493Z,77.93
2018-03-30T02:30:27.454Z,77.83
2018-03-30T02:31:27.460Z,77.45
2018-03-30T02:32:27.476Z,77.74
2018-03-30T02:33:27.506Z,77.64
2018-03-30T02:34:27.511Z,77.36
2018-03-30T02:35:27.587Z,78.12
2018-03-30T02:36:27.552Z,77.36
2018-03-30T02:37:27.560Z,77.07
2018-03-30T02:38:27.592Z,77.36
2018-03-30T02:39:27.595Z,76.69
2018-03-30T02:40:27.611Z,76.88
2018-03-30T02:41:27.637Z,77.07
2018-03-30T02:42:27.650Z,76.50
2018-03-30T02:43:27.661Z,76.31
2018-03-30T02:44:27.686Z,76.59
2018-03-30T02:45:27.699Z,76.40
2018-03-30T02:46:27.711Z,76.12
2018-03-30T02:47:27.776Z,75.74
2018-03-30T02:48:27.741Z,75.74
2018-03-30T02:49:27.756Z,76.40
2018-03-30T02:50:27.785Z,75.64
2018-03-30T02:51:27.806Z,75.84
2018-03-30T02:52:27.819Z,75.45
2018-03-30T02:53:27.830Z,75.93
2018-03-30T02:54:27.924Z,75.45
2018-03-30T02:55:27.868Z,74.31
2018-03-30T02:56:27.874Z,74.98
2018-03-30T02:57:27.891Z,75.07
2018-03-30T02:58:27.905Z,75.16
2018-03-30T02:59:27.931Z,75.64
2018-03-30T03:00:27.967Z,76.46
2018-03-30T03:01:27.957Z,76.27
2018-03-30T03:02:27.974Z,76.94
2018-03-30T03:03:27.992Z,76.75
2018-03-30T03:04:28.005Z,76.94
2018-03-30T03:06:35.280Z,76.18
2018-03-30T03:07:28.055Z,76.75
2018-03-30T03:08:28.070Z,76.56
2018-03-30T03:09:28.088Z,76.37
2018-03-30T03:10:28.103Z,75.70
2018-03-30T03:11:28.120Z,76.46
2018-03-30T03:12:31.357Z,76.27
2018-03-30T03:13:28.162Z,76.46
2018-03-30T03:14:28.179Z,76.56
2018-03-30T03:15:28.193Z,76.84
2018-03-30T03:16:28.211Z,75.70
2018-03-30T03:17:28.218Z,75.60
2018-03-30T03:18:32.300Z,75.42
2018-03-30T03:19:28.253Z,74.94
2018-03-30T03:20:28.265Z,74.56
2018-03-30T03:21:28.284Z,74.65
2018-03-30T03:22:28.298Z,75.60
2018-03-30T03:23:28.314Z,74.27
2018-03-30T03:24:32.299Z,74.46
2018-03-30T03:25:28.356Z,74.37
2018-03-30T03:26:28.370Z,74.46
2018-03-30T03:27:28.379Z,74.08
2018-03-30T03:28:28.398Z,74.37
2018-03-30T03:29:28.414Z,73.99
2018-03-30T03:30:31.637Z,73.89
2018-03-30T03:31:28.448Z,74.18
2018-03-30T03:32:28.464Z,73.51
2018-03-30T03:33:28.481Z,73.51
2018-03-30T03:34:28.505Z,73.22
2018-03-30T03:35:32.020Z,73.47
2018-03-30T03:36:28.596Z,72.81
2018-03-30T03:37:28.541Z,72.62
2018-03-30T03:38:28.561Z,72.24
2018-03-30T03:39:28.586Z,72.52
2018-03-30T03:40:28.600Z,72.24
2018-03-30T03:41:32.516Z,72.17
2018-03-30T03:42:28.623Z,72.27
2018-03-30T03:43:28.645Z,71.70
2018-03-30T03:44:28.658Z,71.09
2018-03-30T03:45:28.673Z,71.67
2018-03-30T03:46:28.687Z,71.95
2018-03-30T03:47:31.960Z,71.95
2018-03-30T03:48:28.721Z,72.71
2018-03-30T03:49:28.743Z,72.24
2018-03-30T03:50:28.764Z,72.05
2018-03-30T03:51:28.782Z,72.24
2018-03-30T03:52:32.143Z,71.95
2018-03-30T03:53:28.807Z,71.67
2018-03-30T03:54:28.820Z,71.09
2018-03-30T03:55:28.835Z,70.43
2018-03-30T03:56:28.861Z,71.19
2018-03-30T03:57:28.867Z,71.57
2018-03-30T03:58:32.192Z,71.86
2018-03-30T03:59:28.901Z,71.47
2018-03-30T04:00:28.931Z,71.00
2018-03-30T04:01:28.948Z,71.38
2018-03-30T04:02:28.950Z,71.57
2018-03-30T04:03:28.965Z,71.19
2018-03-30T04:04:32.388Z,71.95
2018-03-30T04:05:28.997Z,72.14
2018-03-30T04:06:29.017Z,71.95
2018-03-30T04:07:29.059Z,71.95
2018-03-30T04:08:29.050Z,71.38
2018-03-30T04:09:29.081Z,71.95
2018-03-30T04:10:32.538Z,72.05
2018-03-30T04:11:29.098Z,71.95
2018-03-30T04:12:29.117Z,72.52
2018-03-30T04:13:29.171Z,72.33
2018-03-30T04:14:29.147Z,72.81
2018-03-30T04:15:29.165Z,73.10
2018-03-30T04:16:32.589Z,73.00
2018-03-30T04:17:29.198Z,73.28
2018-03-30T04:18:29.223Z,73.28
2018-03-30T04:19:29.229Z,72.62
2018-03-30T04:20:29.248Z,72.90
2018-03-30T04:21:29.277Z,72.52
2018-03-30T04:22:32.590Z,73.00
2018-03-30T04:23:29.300Z,73.47
2018-03-30T04:24:29.322Z,73.28
2018-03-30T04:25:29.339Z,73.10
2018-03-30T04:26:29.345Z,73.38
2018-03-30T04:27:29.372Z,73.95
2018-03-30T04:28:32.636Z,73.10
2018-03-30T04:29:29.401Z,73.57
2018-03-30T04:30:29.418Z,72.81
2018-03-30T04:31:29.430Z,72.71
2018-03-30T04:32:29.532Z,72.52
2018-03-30T04:33:29.457Z,73.10
2018-03-30T04:34:32.730Z,73.10
2018-03-30T04:35:29.494Z,73.38
2018-03-30T04:36:29.523Z,73.38
2018-03-30T04:37:29.534Z,72.33
2018-03-30T04:38:29.541Z,72.24
2018-03-30T04:39:29.567Z,71.86
2018-03-30T04:40:32.746Z,72.24
2018-03-30T04:41:29.593Z,71.67
2018-03-30T04:42:29.605Z,71.38
2018-03-30T04:43:29.624Z,71.09
2018-03-30T04:44:29.701Z,71.00
2018-03-30T04:45:29.698Z,70.72
2018-03-30T04:46:32.775Z,71.09
2018-03-30T04:47:29.693Z,71.28
2018-03-30T04:48:29.765Z,71.38
2018-03-30T04:49:29.755Z,71.38
2018-03-30T04:50:29.752Z,71.38
2018-03-30T04:51:29.752Z,70.90
2018-03-30T04:52:32.775Z,71.86
2018-03-30T04:53:29.785Z,71.38
2018-03-30T04:54:29.799Z,71.47
2018-03-30T04:55:29.819Z,71.47
2018-03-30T04:56:29.872Z,71.53
2018-03-30T04:57:33.816Z,71.06
2018-03-30T04:58:29.874Z,71.09
2018-03-30T04:59:29.883Z,71.00
2018-03-30T05:00:29.927Z,70.14
2018-03-30T05:01:29.922Z,70.14
2018-03-30T05:02:29.941Z,70.72
2018-03-30T05:03:33.954Z,70.14
2018-03-30T05:04:29.967Z,69.57
2018-03-30T05:05:29.982Z,69.10
2018-03-30T05:06:29.997Z,69.00
2018-03-30T05:07:30.015Z,69.10
2018-03-30T05:08:30.031Z,69.29
2018-03-30T05:09:33.952Z,68.71
2018-03-30T05:10:30.072Z,68.15
2018-03-30T05:11:30.088Z,69.10
2018-03-30T05:12:30.104Z,69.19
2018-03-30T05:13:30.123Z,70.05
2018-03-30T05:14:30.126Z,70.33
2018-03-30T05:15:34.050Z,71.28
2018-03-30T05:16:30.193Z,71.09
2018-03-30T05:17:30.186Z,70.43
2018-03-30T05:18:30.202Z,70.33
2018-03-30T05:19:30.217Z,70.43
2018-03-30T05:20:30.228Z,71.67
2018-03-30T05:21:34.047Z,71.76
2018-03-30T05:22:30.259Z,71.47
2018-03-30T05:23:30.274Z,72.05
2018-03-30T05:24:30.290Z,72.71
2018-03-30T05:25:30.305Z,72.24
2018-03-30T05:26:30.332Z,72.14
2018-03-30T05:27:34.096Z,71.86
2018-03-30T05:28:30.360Z,71.95
2018-03-30T05:29:30.367Z,71.76
2018-03-30T05:30:30.388Z,72.05
2018-03-30T05:31:30.410Z,72.05
2018-03-30T05:32:34.334Z,72.24
2018-03-30T05:33:30.465Z,72.24
2018-03-30T05:34:30.461Z,72.30
2018-03-30T05:35:30.466Z,72.20
2018-03-30T05:36:30.482Z,72.86
2018-03-30T05:37:30.496Z,72.01
2018-03-30T05:38:34.273Z,72.11
2018-03-30T05:39:30.572Z,72.11
2018-03-30T05:40:30.551Z,72.01
2018-03-30T05:41:30.563Z,71.91
2018-03-30T05:42:30.577Z,72.33
2018-03-30T05:43:30.595Z,72.05
2018-03-30T05:44:34.318Z,72.01
2018-03-30T05:45:30.629Z,72.01
2018-03-30T05:46:30.653Z,72.01
2018-03-30T05:47:30.671Z,71.91
2018-03-30T05:48:30.677Z,72.11
2018-03-30T05:49:30.700Z,71.91
2018-03-30T05:50:34.680Z,72.11
2018-03-30T05:51:30.738Z,71.82
2018-03-30T05:52:30.741Z,71.63
2018-03-30T05:53:30.757Z,71.53
2018-03-30T05:54:30.775Z,71.63
2018-03-30T05:55:30.791Z,71.34
2018-03-30T05:56:34.724Z,71.06
2018-03-30T05:57:30.827Z,71.53
2018-03-30T05:58:30.842Z,72.58
2018-03-30T05:59:30.859Z,72.58
2018-03-30T06:00:30.875Z,72.77
2018-03-30T06:01:30.888Z,72.58
2018-03-30T06:02:34.713Z,73.34
2018-03-30T06:03:30.933Z,73.06
2018-03-30T06:04:30.947Z,73.91
2018-03-30T06:05:30.950Z,72.96
2018-03-30T06:06:30.970Z,73.25
2018-03-30T06:07:31.000Z,73.25
2018-03-30T06:08:34.160Z,73.63
2018-03-30T06:09:31.031Z,73.82
2018-03-30T06:10:31.036Z,73.91
2018-03-30T06:11:31.060Z,74.20
2018-03-30T06:12:31.068Z,74.20
2018-03-30T06:13:31.081Z,74.20
2018-03-30T06:14:34.511Z,74.10
2018-03-30T06:15:31.128Z,73.47
2018-03-30T06:16:31.168Z,73.15
2018-03-30T06:17:31.150Z,74.20
2018-03-30T06:18:31.161Z,74.01
2018-03-30T06:19:31.182Z,73.53
2018-03-30T06:20:34.453Z,73.06
2018-03-30T06:21:31.222Z,73.63
2018-03-30T06:22:31.263Z,73.06
2018-03-30T06:23:31.245Z,73.06
2018-03-30T06:24:31.265Z,73.19
2018-03-30T06:25:31.285Z,73.44
2018-03-30T06:26:34.508Z,73.63
2018-03-30T06:27:31.311Z,73.72
2018-03-30T06:28:31.329Z,74.01
2018-03-30T06:29:31.341Z,73.82
2018-03-30T06:30:31.366Z,73.63
2018-03-30T06:31:31.381Z,74.29
2018-03-30T06:32:34.699Z,74.29
2018-03-30T06:33:31.417Z,74.29
2018-03-30T06:34:31.460Z,73.91
2018-03-30T06:35:31.453Z,73.91
2018-03-30T06:36:31.455Z,73.63
2018-03-30T06:37:31.473Z,73.91
2018-03-30T06:38:34.877Z,74.48
2018-03-30T06:39:31.514Z,74.20
2018-03-30T06:40:31.576Z,73.91
2018-03-30T06:41:31.535Z,74.20
2018-03-30T06:42:31.556Z,74.39
2018-03-30T06:43:31.567Z,74.48
2018-03-30T06:44:35.026Z,74.39
2018-03-30T06:45:31.600Z,74.29
2018-03-30T06:46:31.642Z,74.67
2018-03-30T06:47:31.634Z,74.87
2018-03-30T06:48:31.647Z,74.96
2018-03-30T06:49:31.674Z,74.58
2018-03-30T06:50:35.046Z,75.15
2018-03-30T06:51:31.699Z,74.29
2018-03-30T06:52:31.713Z,73.66
2018-03-30T06:53:31.741Z,73.76
2018-03-30T06:54:31.747Z,74.43
2018-03-30T06:55:31.764Z,73.66
2018-03-30T06:56:35.087Z,73.95
2018-03-30T06:57:31.795Z,73.10
2018-03-30T06:58:31.893Z,72.90
2018-03-30T06:59:31.826Z,73.66
2018-03-30T07:00:31.845Z,73.47
2018-03-30T07:01:31.861Z,72.71
2018-03-30T07:02:35.034Z,72.24
2018-03-30T07:03:31.902Z,72.05
2018-03-30T07:04:31.910Z,72.14
2018-03-30T07:05:31.925Z,71.86
2018-03-30T07:06:31.941Z,71.86
2018-03-30T07:07:31.971Z,71.86
2018-03-30T07:08:35.166Z,72.05
2018-03-30T07:09:31.991Z,71.67
2018-03-30T07:10:32.007Z,72.81
2018-03-30T07:11:32.022Z,71.95
2018-03-30T07:12:32.040Z,72.05
2018-03-30T07:13:35.221Z,72.24
2018-03-30T07:14:32.073Z,71.95
2018-03-30T07:15:32.089Z,71.67
2018-03-30T07:16:32.106Z,71.95
2018-03-30T07:17:32.194Z,72.24
2018-03-30T07:18:32.142Z,71.42
2018-03-30T07:19:35.362Z,70.94
2018-03-30T07:20:32.180Z,70.75
2018-03-30T07:21:32.219Z,70.47
2018-03-30T07:22:32.211Z,71.80
2018-03-30T07:23:32.220Z,70.69
2018-03-30T07:24:32.239Z,68.53
2018-03-30T07:25:35.362Z,65.80
2018-03-30T07:26:32.271Z,63.35
2018-03-30T07:27:32.288Z,62.59
2018-03-30T07:28:32.309Z,64.91
2018-03-30T07:29:32.322Z,68.02
2018-03-30T07:30:32.341Z,70.40
2018-03-30T07:31:35.513Z,71.73
2018-03-30T07:32:32.385Z,73.51
2018-03-30T07:33:32.406Z,74.46
2018-03-30T07:34:32.416Z,75.23
2018-03-30T07:35:32.430Z,76.23
2018-03-30T07:36:32.444Z,76.81
2018-03-30T07:37:35.566Z,75.76
2018-03-30T07:38:32.478Z,77.19
2018-03-30T07:39:32.493Z,77.28
2018-03-30T07:40:32.513Z,77.66
2018-03-30T07:41:32.526Z,77.00
2018-03-30T07:42:36.552Z,76.18
2018-03-30T07:43:32.559Z,75.42
2018-03-30T07:44:32.577Z,75.60
2018-03-30T07:45:32.612Z,74.63
2018-03-30T07:46:32.610Z,71.43
2018-03-30T07:47:32.640Z,68.12
2018-03-30T07:48:35.867Z,66.92
2018-03-30T07:49:32.670Z,64.65
2018-03-30T07:50:32.681Z,62.78
2018-03-30T07:51:32.698Z,61.54
2018-03-30T07:52:32.727Z,63.23
2018-03-30T07:53:32.731Z,63.16
2018-03-30T07:54:35.890Z,61.47
2018-03-30T07:55:32.774Z,59.01
2018-03-30T07:56:32.796Z,58.47
2018-03-30T07:57:32.810Z,58.37
2018-03-30T07:58:32.818Z,57.32
2018-03-30T07:59:32.867Z,57.32
2018-03-30T08:00:35.961Z,56.84
2018-03-30T08:01:32.885Z,57.13
2018-03-30T08:02:32.898Z,56.08
2018-03-30T08:03:32.986Z,56.43
2018-03-30T08:04:32.940Z,57.51
2018-03-30T08:05:32.950Z,56.75
2018-03-30T08:06:36.986Z,56.08
2018-03-30T08:07:32.988Z,55.73
2018-03-30T08:08:33.015Z,54.50
2018-03-30T08:09:33.027Z,54.60
2018-03-30T08:10:33.045Z,54.10
2018-03-30T08:11:33.061Z,54.67
2018-03-30T08:12:37.048Z,53.64
2018-03-30T08:13:33.116Z,53.59
2018-03-30T08:14:33.127Z,55.86
2018-03-30T08:15:33.140Z,57.01
2018-03-30T08:16:33.171Z,56.65
2018-03-30T08:17:33.177Z,57.13
2018-03-30T08:18:36.302Z,56.68
2018-03-30T08:19:33.311Z,55.87
2018-03-30T08:20:33.246Z,52.62
2018-03-30T08:21:33.257Z,50.48
2018-03-30T08:22:33.315Z,48.49
2018-03-30T08:23:33.295Z,50.77
2018-03-30T08:24:37.321Z,51.37
2018-03-30T08:25:33.406Z,50.79
2018-03-30T08:26:33.358Z,50.12
2018-03-30T08:27:33.377Z,48.90
2018-03-30T08:28:33.397Z,49.07
2018-03-30T08:29:33.415Z,50.65
2018-03-30T08:30:37.396Z,51.82
2018-03-30T08:31:33.477Z,51.54
2018-03-30T08:32:33.475Z,50.58
2018-03-30T08:33:33.503Z,50.00
2018-03-30T08:34:33.538Z,50.67
2018-03-30T08:35:33.586Z,51.73
2018-03-30T08:36:37.563Z,51.44
2018-03-30T08:37:33.577Z,51.73
2018-03-30T08:38:33.596Z,52.59
2018-03-30T08:39:33.619Z,52.56
2018-03-30T08:40:33.638Z,53.64
2018-03-30T08:41:33.665Z,53.07
2018-03-30T08:42:37.594Z,51.75
2018-03-30T08:43:33.708Z,50.70
2018-03-30T08:44:33.722Z,49.67
2018-03-30T08:45:33.739Z,47.75
2018-03-30T08:46:33.758Z,48.69
2018-03-30T08:47:33.788Z,49.29
2018-03-30T08:48:37.817Z,48.13
2018-03-30T08:49:33.824Z,48.38
2018-03-30T08:50:33.877Z,50.51
2018-03-30T08:51:33.860Z,50.10
2018-03-30T08:52:33.881Z,50.65
2018-03-30T08:53:33.903Z,51.10
2018-03-30T08:54:37.333Z,52.34
2018-03-30T08:55:33.955Z,53.85
2018-03-30T08:56:34.011Z,55.02
2018-03-30T08:57:33.983Z,55.02
2018-03-30T08:58:34.005Z,53.69
2018-03-30T08:59:34.027Z,54.55
2018-03-30T09:00:37.612Z,54.33
2018-03-30T09:01:34.068Z,56.12
2018-03-30T09:02:34.144Z,55.74
2018-03-30T09:03:34.105Z,57.14
2018-03-30T09:04:34.126Z,58.38
2018-03-30T09:05:34.146Z,59.38
2018-03-30T09:06:37.622Z,60.61
2018-03-30T09:07:34.186Z,60.61
2018-03-30T09:08:34.237Z,62.62
2018-03-30T09:09:34.243Z,61.38
2018-03-30T09:10:34.243Z,60.61
2018-03-30T09:11:34.265Z,59.95
2018-03-30T09:12:37.691Z,60.64
2018-03-30T09:13:34.300Z,58.61
2018-03-30T09:14:34.322Z,55.93
2018-03-30T09:15:34.416Z,54.52
2018-03-30T09:16:34.361Z,52.34
2018-03-30T09:17:34.378Z,50.43
2018-03-30T09:18:38.055Z,50.26
2018-03-30T09:19:34.426Z,50.20
2018-03-30T09:20:34.434Z,49.36
2018-03-30T09:21:34.456Z,48.47
2018-03-30T09:22:34.476Z,50.34
2018-03-30T09:23:34.503Z,52.22
2018-03-30T09:24:38.132Z,54.59
2018-03-30T09:25:34.532Z,55.54
2018-03-30T09:26:34.550Z,54.94
2018-03-30T09:27:34.575Z,55.68
2018-03-30T09:28:34.656Z,57.02
2018-03-30T09:29:34.610Z,58.83
2018-03-30T09:30:38.141Z,58.99
2018-03-30T09:31:34.652Z,57.62
2018-03-30T09:32:34.688Z,57.31
2018-03-30T09:33:34.684Z,58.54
2018-03-30T09:34:34.703Z,58.33
2018-03-30T09:35:38.480Z,59.88
2018-03-30T09:36:34.743Z,58.67
2018-03-30T09:37:34.758Z,56.21
2018-03-30T09:38:34.789Z,56.79
2018-03-30T09:39:34.798Z,57.46
2018-03-30T09:40:34.822Z,57.68
2018-03-30T09:41:37.892Z,57.20
2018-03-30T09:42:34.856Z,56.08
2018-03-30T09:43:34.875Z,54.22
2018-03-30T09:44:34.890Z,53.14
2018-03-30T09:45:34.919Z,53.04
2018-03-30T09:46:34.990Z,56.27
2018-03-30T09:47:34.950Z,56.91
2018-03-30T09:48:34.976Z,57.36
2018-03-30T09:49:34.991Z,57.93
2018-03-30T09:50:35.010Z,57.75
2018-03-30T09:51:35.036Z,55.76
2018-03-30T09:52:35.048Z,55.86
2018-03-30T09:53:35.138Z,55.83
2018-03-30T09:54:35.092Z,56.88
2018-03-30T09:55:35.104Z,57.75
2018-03-30T09:56:35.120Z,57.36
2018-03-30T09:57:35.152Z,57.75
2018-03-30T09:58:35.160Z,58.61
2018-03-30T09:59:35.194Z,58.98
2018-03-30T10:00:35.198Z,57.53
2018-03-30T10:01:35.217Z,56.95
2018-03-30T10:02:35.246Z,56.34
2018-03-30T10:03:35.257Z,55.96
2018-03-30T10:04:35.278Z,55.19
2018-03-30T10:05:35.324Z,54.78
2018-03-30T10:06:35.314Z,55.74
2018-03-30T10:07:35.329Z,56.50
2018-03-30T10:08:35.347Z,56.95
2018-03-30T10:09:35.377Z,58.29
2018-03-30T10:10:35.399Z,58.95
2018-03-30T10:11:35.418Z,57.65
2018-03-30T10:12:35.422Z,54.64
2018-03-30T10:13:35.454Z,52.66
2018-03-30T10:14:35.474Z,49.62
2018-03-30T10:15:35.491Z,47.27
2018-03-30T10:16:35.512Z,46.29
2018-03-30T10:17:35.521Z,47.34
2018-03-30T10:18:35.539Z,47.51
2018-03-30T10:19:35.574Z,46.75
2018-03-30T10:20:35.578Z,47.44
2018-03-30T10:21:35.611Z,45.98
2018-03-30T10:22:35.619Z,48.23
2018-03-30T10:23:35.634Z,50.41
2018-03-30T10:24:35.658Z,51.53
2018-03-30T10:25:35.677Z,51.17
2018-03-30T10:26:35.699Z,49.86
2018-03-30T10:27:35.715Z,49.31
2018-03-30T10:28:35.744Z,48.28
2018-03-30T10:29:35.766Z,47.80
2018-03-30T10:30:35.831Z,46.29
2018-03-30T10:31:35.794Z,44.68
2018-03-30T10:32:35.812Z,42.11
2018-03-30T10:33:35.836Z,42.60
2018-03-30T10:34:35.853Z,43.10
2018-03-30T10:36:35.943Z,42.50
2018-03-30T10:37:35.912Z,43.10
2018-03-30T10:38:35.935Z,43.55
2018-03-30T10:39:35.952Z,44.56
2018-03-30T10:40:35.969Z,48.18
2018-03-30T10:41:35.989Z,47.49
2018-03-30T10:42:36.059Z,48.49
2018-03-30T10:43:36.068Z,51.46
2018-03-30T10:44:36.061Z,49.02
2018-03-30T10:45:36.082Z,47.68
2018-03-30T10:46:36.095Z,48.44
2018-03-30T10:47:36.109Z,48.38
2018-03-30T10:48:36.140Z,46.00
2018-03-30T10:49:36.150Z,44.61
2018-03-30T10:50:36.171Z,43.53
2018-03-30T10:51:36.191Z,45.16
2018-03-30T10:52:36.212Z,47.61
2018-03-30T10:53:36.233Z,46.48
2018-03-30T10:54:36.254Z,45.23
2018-03-30T10:55:36.271Z,45.72
2018-03-30T10:56:36.291Z,45.83
2018-03-30T10:57:36.311Z,44.56
2018-03-30T10:58:36.330Z,45.64
2018-03-30T10:59:36.359Z,45.14
2018-03-30T11:00:36.402Z,46.29
2018-03-30T11:01:36.393Z,46.03
2018-03-30T11:02:36.420Z,45.72
2018-03-30T11:03:36.432Z,46.58
2018-03-30T11:04:36.451Z,45.81
2018-03-30T11:05:36.482Z,45.69
2018-03-30T11:06:36.499Z,47.58
2018-03-30T11:07:36.574Z,47.39
2018-03-30T11:08:36.534Z,48.35
2018-03-30T11:09:36.553Z,48.13
2018-03-30T11:10:36.578Z,49.48
2018-03-30T11:11:36.658Z,49.11
2018-03-30T11:12:36.622Z,48.44
2018-03-30T11:13:36.654Z,48.64
2018-03-30T11:14:36.653Z,49.29
2018-03-30T11:15:36.670Z,50.72
2018-03-30T11:16:36.694Z,50.89
2018-03-30T11:17:36.711Z,50.21
2018-03-30T11:18:36.731Z,51.27
2018-03-30T11:19:36.749Z,52.29
2018-03-30T11:20:36.777Z,53.16
2018-03-30T11:21:36.788Z,52.87
2018-03-30T11:22:36.810Z,54.02
2018-03-30T11:23:36.837Z,53.56
2018-03-30T11:24:36.901Z,52.99
2018-03-30T11:25:36.865Z,52.51
2018-03-30T11:26:36.895Z,53.37
2018-03-30T11:27:36.907Z,54.52
2018-03-30T11:28:36.927Z,55.86
2018-03-30T11:29:36.943Z,57.07
2018-03-30T11:30:36.962Z,57.97
2018-03-30T11:31:36.994Z,58.70
2018-03-30T11:32:37.012Z,58.54
2018-03-30T11:33:37.017Z,58.06
2018-03-30T11:34:37.038Z,59.49
2018-03-30T11:35:37.065Z,57.29
2018-03-30T11:36:37.074Z,57.77
2018-03-30T11:37:37.094Z,58.34
2018-03-30T11:38:37.116Z,58.34
2018-03-30T11:39:37.135Z,58.73
2018-03-30T11:40:37.154Z,57.29
2018-03-30T11:41:37.171Z,56.46
2018-03-30T11:42:37.193Z,56.82
2018-03-30T11:43:37.211Z,59.01
2018-03-30T11:44:37.246Z,59.01
2018-03-30T11:45:37.249Z,60.04
2018-03-30T11:46:37.265Z,60.06
2018-03-30T11:47:37.286Z,59.14
2018-03-30T11:48:37.308Z,57.61
2018-03-30T11:49:37.322Z,56.56
2018-03-30T11:50:37.345Z,53.49
2018-03-30T11:51:37.371Z,53.18
2018-03-30T11:52:37.380Z,54.04
2018-03-30T11:53:37.400Z,53.85
2018-03-30T11:54:37.478Z,55.10
2018-03-30T11:55:37.440Z,56.40
2018-03-30T11:56:37.467Z,58.12
2018-03-30T11:57:37.476Z,62.01
2018-03-30T11:58:37.500Z,68.26
2018-03-30T11:59:37.521Z,70.22
2018-03-30T12:00:37.531Z,72.61
2018-03-30T12:01:37.549Z,73.85
2018-03-30T12:02:37.570Z,73.47
2018-03-30T12:03:37.590Z,72.61
2018-03-30T12:04:37.609Z,73.56
2018-03-30T12:05:37.628Z,73.94
2018-03-30T12:06:37.645Z,74.23
2018-03-30T12:07:37.670Z,73.18
2018-03-30T12:08:37.753Z,73.69
2018-03-30T12:09:37.699Z,72.49
2018-03-30T12:10:37.724Z,72.39
2018-03-30T12:11:37.732Z,71.25
2018-03-30T12:12:37.752Z,72.39
2018-03-30T12:13:37.770Z,69.18
2018-03-30T12:14:37.786Z,70.96
2018-03-30T12:15:37.813Z,71.44
2018-03-30T12:16:37.829Z,71.57
2018-03-30T12:17:37.849Z,69.41
2018-03-30T12:18:37.867Z,67.69
2018-03-30T12:19:37.879Z,69.44
2018-03-30T12:20:37.898Z,67.79
2018-03-30T12:21:37.924Z,64.40
2018-03-30T12:22:37.944Z,66.38
2018-03-30T12:23:37.952Z,61.98
2018-03-30T12:24:37.978Z,63.13
2018-03-30T12:25:37.989Z,61.98
2018-03-30T12:26:38.010Z,62.07
2018-03-30T12:27:38.039Z,62.23
2018-03-30T12:28:38.049Z,63.96
2018-03-30T12:29:38.066Z,64.92
2018-03-30T12:30:38.089Z,62.90
2018-03-30T12:31:38.150Z,62.62
2018-03-30T12:32:38.191Z,61.69
2018-03-30T12:33:38.154Z,58.27
2018-03-30T12:34:38.166Z,56.96
2018-03-30T12:35:38.182Z,54.21
2018-03-30T12:36:38.203Z,55.68
2018-03-30T12:37:38.224Z,53.50
2018-03-30T12:38:38.260Z,52.33
2018-03-30T12:39:38.262Z,53.50
2018-03-30T12:40:38.291Z,50.15
2018-03-30T12:41:38.304Z,50.03
2018-03-30T12:42:38.320Z,51.73
2018-03-30T12:43:38.352Z,50.70
2018-03-30T12:44:38.369Z,50.63
2018-03-30T12:45:38.383Z,50.79
2018-03-30T12:46:38.411Z,53.40
2018-03-30T12:47:38.422Z,55.63
2018-03-30T12:48:38.451Z,55.46
2018-03-30T12:49:38.465Z,53.91
2018-03-30T12:50:38.482Z,55.82
2018-03-30T12:51:38.509Z,55.97
2018-03-30T12:52:38.524Z,54.82
2018-03-30T12:53:38.575Z,52.45
2018-03-30T12:54:38.573Z,51.04